sensor_id;sensor_type;location;lat;lon;timestamp;P1;durP1;ratioP1;P2;durP2;ratioP2
77055;SDS011;67471;44.918;8.614;2024-03-02T00:00:58;3.33;;;2.10;;
77055;SDS011;67471;44.918;8.614;2024-03-02T00:04:05;6.72;;;3.92;;
77055;SDS011;67471;44.918;8.614;2024-03-02T00:07:11;4.82;;;3.20;;
77055;SDS011;67471;44.918;8.614;2024-03-02T00:10:19;3.70;;;2.50;;
77055;SDS011;67471;44.918;8.614;2024-03-02T00:13:28;3.22;;;2.38;;
77055;SDS011;67471;44.918;8.614;2024-03-02T00:16:33;3.28;;;2.22;;
77055;SDS011;67471;44.918;8.614;2024-03-02T00:19:40;6.40;;;4.57;;
77055;SDS011;67471;44.918;8.614;2024-03-02T00:22:44;4.20;;;3.08;;
77055;SDS011;67471;44.918;8.614;2024-03-02T00:25:50;3.80;;;2.60;;
77055;SDS011;67471;44.918;8.614;2024-03-02T00:28:59;3.65;;;2.83;;
77055;SDS011;67471;44.918;8.614;2024-03-02T00:32:03;4.25;;;2.58;;
77055;SDS011;67471;44.918;8.614;2024-03-02T00:35:16;3.67;;;2.22;;
77055;SDS011;67471;44.918;8.614;2024-03-02T00:38:19;5.72;;;3.22;;
77055;SDS011;67471;44.918;8.614;2024-03-02T00:41:30;5.53;;;2.90;;
77055;SDS011;67471;44.918;8.614;2024-03-02T00:44:34;4.25;;;2.58;;
77055;SDS011;67471;44.918;8.614;2024-03-02T00:47:41;3.40;;;2.40;;
77055;SDS011;67471;44.918;8.614;2024-03-02T00:50:44;4.63;;;3.15;;
77055;SDS011;67471;44.918;8.614;2024-03-02T00:53:58;4.35;;;3.08;;
77055;SDS011;67471;44.918;8.614;2024-03-02T00:57:02;3.53;;;2.53;;
77055;SDS011;67471;44.918;8.614;2024-03-02T01:00:07;3.80;;;2.88;;
77055;SDS011;67471;44.918;8.614;2024-03-02T01:03:13;4.53;;;3.58;;
77055;SDS011;67471;44.918;8.614;2024-03-02T01:06:16;7.18;;;4.25;;
77055;SDS011;67471;44.918;8.614;2024-03-02T01:09:20;7.50;;;4.60;;
77055;SDS011;67471;44.918;8.614;2024-03-02T01:12:24;6.35;;;4.80;;
77055;SDS011;67471;44.918;8.614;2024-03-02T01:15:28;7.05;;;5.38;;
77055;SDS011;67471;44.918;8.614;2024-03-02T01:18:32;7.53;;;5.32;;
77055;SDS011;67471;44.918;8.614;2024-03-02T01:21:36;9.35;;;5.63;;
77055;SDS011;67471;44.918;8.614;2024-03-02T01:24:39;7.28;;;4.38;;
77055;SDS011;67471;44.918;8.614;2024-03-02T01:27:44;7.55;;;4.75;;
77055;SDS011;67471;44.918;8.614;2024-03-02T01:30:47;5.22;;;4.10;;
77055;SDS011;67471;44.918;8.614;2024-03-02T01:33:51;5.65;;;4.00;;
77055;SDS011;67471;44.918;8.614;2024-03-02T01:36:55;5.57;;;4.03;;
77055;SDS011;67471;44.918;8.614;2024-03-02T01:39:59;4.68;;;3.83;;
77055;SDS011;67471;44.918;8.614;2024-03-02T01:43:06;5.00;;;3.60;;
77055;SDS011;67471;44.918;8.614;2024-03-02T01:46:10;4.60;;;3.15;;
77055;SDS011;67471;44.918;8.614;2024-03-02T01:49:14;4.40;;;3.00;;
77055;SDS011;67471;44.918;8.614;2024-03-02T01:52:18;5.43;;;3.28;;
77055;SDS011;67471;44.918;8.614;2024-03-02T01:55:22;7.63;;;4.68;;
77055;SDS011;67471;44.918;8.614;2024-03-02T01:58:25;14.57;;;9.88;;
77055;SDS011;67471;44.918;8.614;2024-03-02T02:01:29;5.32;;;3.92;;
77055;SDS011;67471;44.918;8.614;2024-03-02T02:04:34;5.40;;;3.70;;
77055;SDS011;67471;44.918;8.614;2024-03-02T02:07:38;8.77;;;4.13;;
77055;SDS011;67471;44.918;8.614;2024-03-02T02:10:42;6.70;;;4.13;;
77055;SDS011;67471;44.918;8.614;2024-03-02T02:13:45;6.22;;;3.70;;
77055;SDS011;67471;44.918;8.614;2024-03-02T02:16:49;6.70;;;4.35;;
77055;SDS011;67471;44.918;8.614;2024-03-02T02:19:53;6.45;;;4.57;;
77055;SDS011;67471;44.918;8.614;2024-03-02T02:23:01;6.43;;;4.10;;
77055;SDS011;67471;44.918;8.614;2024-03-02T02:26:06;7.43;;;5.50;;
77055;SDS011;67471;44.918;8.614;2024-03-02T02:29:10;8.68;;;4.75;;
77055;SDS011;67471;44.918;8.614;2024-03-02T02:32:13;9.40;;;7.20;;
77055;SDS011;67471;44.918;8.614;2024-03-02T02:35:17;10.30;;;6.28;;
77055;SDS011;67471;44.918;8.614;2024-03-02T02:38:21;7.75;;;4.78;;
77055;SDS011;67471;44.918;8.614;2024-03-02T02:41:25;6.28;;;5.18;;
77055;SDS011;67471;44.918;8.614;2024-03-02T02:44:29;8.25;;;4.57;;
77055;SDS011;67471;44.918;8.614;2024-03-02T02:47:33;6.07;;;4.70;;
77055;SDS011;67471;44.918;8.614;2024-03-02T02:50:38;6.00;;;4.32;;
77055;SDS011;67471;44.918;8.614;2024-03-02T02:53:42;6.63;;;4.60;;
77055;SDS011;67471;44.918;8.614;2024-03-02T02:56:45;7.18;;;4.85;;
77055;SDS011;67471;44.918;8.614;2024-03-02T02:59:49;7.03;;;4.72;;
77055;SDS011;67471;44.918;8.614;2024-03-02T03:02:53;8.25;;;5.68;;
77055;SDS011;67471;44.918;8.614;2024-03-02T03:05:57;7.75;;;4.78;;
77055;SDS011;67471;44.918;8.614;2024-03-02T03:09:01;7.43;;;4.82;;
77055;SDS011;67471;44.918;8.614;2024-03-02T03:12:05;6.43;;;4.60;;
77055;SDS011;67471;44.918;8.614;2024-03-02T03:15:09;6.82;;;5.03;;
77055;SDS011;67471;44.918;8.614;2024-03-02T03:18:15;7.90;;;5.32;;
77055;SDS011;67471;44.918;8.614;2024-03-02T03:21:19;7.00;;;4.63;;
77055;SDS011;67471;44.918;8.614;2024-03-02T03:24:22;6.75;;;4.82;;
77055;SDS011;67471;44.918;8.614;2024-03-02T03:27:26;7.45;;;4.47;;
77055;SDS011;67471;44.918;8.614;2024-03-02T03:30:30;4.88;;;3.85;;
77055;SDS011;67471;44.918;8.614;2024-03-02T03:33:34;6.22;;;4.10;;
77055;SDS011;67471;44.918;8.614;2024-03-02T03:36:37;4.97;;;3.20;;
77055;SDS011;67471;44.918;8.614;2024-03-02T03:39:41;5.38;;;3.42;;
77055;SDS011;67471;44.918;8.614;2024-03-02T03:42:45;6.15;;;3.65;;
77055;SDS011;67471;44.918;8.614;2024-03-02T03:45:49;5.07;;;3.72;;
77055;SDS011;67471;44.918;8.614;2024-03-02T03:48:53;5.82;;;3.92;;
77055;SDS011;67471;44.918;8.614;2024-03-02T03:51:56;7.50;;;4.53;;
77055;SDS011;67471;44.918;8.614;2024-03-02T03:55:00;6.75;;;4.63;;
77055;SDS011;67471;44.918;8.614;2024-03-02T03:58:04;7.88;;;5.22;;
77055;SDS011;67471;44.918;8.614;2024-03-02T04:01:08;8.10;;;5.63;;
77055;SDS011;67471;44.918;8.614;2024-03-02T04:04:11;8.77;;;5.95;;
77055;SDS011;67471;44.918;8.614;2024-03-02T04:07:15;8.18;;;5.68;;
77055;SDS011;67471;44.918;8.614;2024-03-02T04:10:19;9.25;;;6.20;;
77055;SDS011;67471;44.918;8.614;2024-03-02T04:13:24;10.40;;;6.40;;
77055;SDS011;67471;44.918;8.614;2024-03-02T04:16:28;9.90;;;6.35;;
77055;SDS011;67471;44.918;8.614;2024-03-02T04:19:32;9.98;;;6.68;;
77055;SDS011;67471;44.918;8.614;2024-03-02T04:22:35;9.02;;;6.30;;
77055;SDS011;67471;44.918;8.614;2024-03-02T04:25:39;10.98;;;7.07;;
77055;SDS011;67471;44.918;8.614;2024-03-02T04:28:43;10.18;;;6.15;;
77055;SDS011;67471;44.918;8.614;2024-03-02T04:31:47;10.35;;;5.53;;
77055;SDS011;67471;44.918;8.614;2024-03-02T04:34:51;7.97;;;5.07;;
77055;SDS011;67471;44.918;8.614;2024-03-02T04:37:55;6.78;;;4.53;;
77055;SDS011;67471;44.918;8.614;2024-03-02T04:40:59;7.22;;;4.60;;
77055;SDS011;67471;44.918;8.614;2024-03-02T04:44:03;8.27;;;4.78;;
77055;SDS011;67471;44.918;8.614;2024-03-02T04:47:06;6.78;;;4.25;;
77055;SDS011;67471;44.918;8.614;2024-03-02T04:50:10;7.18;;;3.80;;
77055;SDS011;67471;44.918;8.614;2024-03-02T04:53:14;7.65;;;3.38;;
77055;SDS011;67471;44.918;8.614;2024-03-02T04:56:18;6.53;;;3.40;;
77055;SDS011;67471;44.918;8.614;2024-03-02T04:59:43;4.53;;;3.20;;
77055;SDS011;67471;44.918;8.614;2024-03-02T05:02:47;4.13;;;2.88;;
77055;SDS011;67471;44.918;8.614;2024-03-02T05:05:50;6.85;;;3.40;;
77055;SDS011;67471;44.918;8.614;2024-03-02T05:08:54;4.95;;;3.40;;
77055;SDS011;67471;44.918;8.614;2024-03-02T05:11:58;5.15;;;3.50;;
77055;SDS011;67471;44.918;8.614;2024-03-02T05:15:21;5.18;;;3.38;;
77055;SDS011;67471;44.918;8.614;2024-03-02T05:18:24;6.72;;;3.60;;
77055;SDS011;67471;44.918;8.614;2024-03-02T05:21:28;6.40;;;3.90;;
77055;SDS011;67471;44.918;8.614;2024-03-02T05:24:32;5.47;;;3.13;;
77055;SDS011;67471;44.918;8.614;2024-03-02T05:27:36;6.13;;;3.20;;
77055;SDS011;67471;44.918;8.614;2024-03-02T05:30:42;6.80;;;3.65;;
77055;SDS011;67471;44.918;8.614;2024-03-02T05:33:46;3.92;;;2.80;;
77055;SDS011;67471;44.918;8.614;2024-03-02T05:36:49;7.10;;;4.07;;
77055;SDS011;67471;44.918;8.614;2024-03-02T05:39:53;5.22;;;3.47;;
77055;SDS011;67471;44.918;8.614;2024-03-02T05:42:57;6.85;;;3.60;;
77055;SDS011;67471;44.918;8.614;2024-03-02T05:46:01;5.57;;;3.25;;
77055;SDS011;67471;44.918;8.614;2024-03-02T05:49:05;7.78;;;4.38;;
77055;SDS011;67471;44.918;8.614;2024-03-02T05:52:11;5.55;;;3.25;;
77055;SDS011;67471;44.918;8.614;2024-03-02T05:55:15;6.18;;;3.90;;
77055;SDS011;67471;44.918;8.614;2024-03-02T05:58:19;7.35;;;4.05;;
77055;SDS011;67471;44.918;8.614;2024-03-02T06:01:56;6.32;;;4.00;;
77055;SDS011;67471;44.918;8.614;2024-03-02T06:05:00;7.53;;;4.53;;
77055;SDS011;67471;44.918;8.614;2024-03-02T06:08:03;9.13;;;4.65;;
77055;SDS011;67471;44.918;8.614;2024-03-02T06:11:07;6.00;;;3.95;;
77055;SDS011;67471;44.918;8.614;2024-03-02T06:14:11;7.13;;;4.75;;
77055;SDS011;67471;44.918;8.614;2024-03-02T06:17:15;9.40;;;4.75;;
77055;SDS011;67471;44.918;8.614;2024-03-02T06:20:19;8.57;;;5.43;;
77055;SDS011;67471;44.918;8.614;2024-03-02T06:23:23;5.53;;;3.63;;
77055;SDS011;67471;44.918;8.614;2024-03-02T06:26:27;6.00;;;3.55;;
77055;SDS011;67471;44.918;8.614;2024-03-02T06:29:32;5.32;;;3.60;;
77055;SDS011;67471;44.918;8.614;2024-03-02T06:32:37;6.60;;;3.90;;
77055;SDS011;67471;44.918;8.614;2024-03-02T06:35:40;6.47;;;3.55;;
77055;SDS011;67471;44.918;8.614;2024-03-02T06:38:44;5.35;;;2.97;;
77055;SDS011;67471;44.918;8.614;2024-03-02T06:41:48;8.23;;;3.08;;
77055;SDS011;67471;44.918;8.614;2024-03-02T06:44:52;4.38;;;2.70;;
77055;SDS011;67471;44.918;8.614;2024-03-02T06:47:55;5.57;;;2.97;;
77055;SDS011;67471;44.918;8.614;2024-03-02T06:51:00;4.00;;;2.70;;
77055;SDS011;67471;44.918;8.614;2024-03-02T06:54:04;6.50;;;2.90;;
77055;SDS011;67471;44.918;8.614;2024-03-02T06:57:08;5.90;;;3.03;;
77055;SDS011;67471;44.918;8.614;2024-03-02T07:00:12;5.22;;;2.97;;
77055;SDS011;67471;44.918;8.614;2024-03-02T07:03:17;3.90;;;2.25;;
77055;SDS011;67471;44.918;8.614;2024-03-02T07:06:21;4.72;;;2.30;;
77055;SDS011;67471;44.918;8.614;2024-03-02T07:09:25;7.00;;;2.40;;
77055;SDS011;67471;44.918;8.614;2024-03-02T07:12:29;4.28;;;2.60;;
77055;SDS011;67471;44.918;8.614;2024-03-02T07:15:33;5.43;;;2.38;;
77055;SDS011;67471;44.918;8.614;2024-03-02T07:18:55;4.35;;;2.30;;
77055;SDS011;67471;44.918;8.614;2024-03-02T07:22:00;4.43;;;2.30;;
77055;SDS011;67471;44.918;8.614;2024-03-02T07:25:04;4.13;;;2.47;;
77055;SDS011;67471;44.918;8.614;2024-03-02T07:28:10;5.22;;;2.30;;
77055;SDS011;67471;44.918;8.614;2024-03-02T07:31:14;3.80;;;2.97;;
77055;SDS011;67471;44.918;8.614;2024-03-02T07:34:18;3.60;;;2.25;;
77055;SDS011;67471;44.918;8.614;2024-03-02T07:37:22;3.30;;;2.20;;
77055;SDS011;67471;44.918;8.614;2024-03-02T07:40:26;5.82;;;2.35;;
77055;SDS011;67471;44.918;8.614;2024-03-02T07:43:30;3.28;;;2.33;;
77055;SDS011;67471;44.918;8.614;2024-03-02T07:46:36;5.13;;;3.40;;
77055;SDS011;67471;44.918;8.614;2024-03-02T07:49:41;3.95;;;2.90;;
77055;SDS011;67471;44.918;8.614;2024-03-02T07:52:45;5.50;;;2.78;;
77055;SDS011;67471;44.918;8.614;2024-03-02T07:55:49;4.28;;;2.08;;
77055;SDS011;67471;44.918;8.614;2024-03-02T07:58:53;4.05;;;2.33;;
77055;SDS011;67471;44.918;8.614;2024-03-02T08:01:56;4.90;;;2.47;;
77055;SDS011;67471;44.918;8.614;2024-03-02T08:05:01;3.75;;;2.30;;
77055;SDS011;67471;44.918;8.614;2024-03-02T08:08:05;3.78;;;2.35;;
77055;SDS011;67471;44.918;8.614;2024-03-02T08:11:09;4.00;;;2.28;;
77055;SDS011;67471;44.918;8.614;2024-03-02T08:14:12;6.10;;;3.58;;
77055;SDS011;67471;44.918;8.614;2024-03-02T08:17:16;6.32;;;3.20;;
77055;SDS011;67471;44.918;8.614;2024-03-02T08:20:21;7.20;;;4.80;;
77055;SDS011;67471;44.918;8.614;2024-03-02T08:23:24;7.40;;;3.95;;
77055;SDS011;67471;44.918;8.614;2024-03-02T08:26:28;7.10;;;3.60;;
77055;SDS011;67471;44.918;8.614;2024-03-02T08:29:34;5.38;;;3.30;;
77055;SDS011;67471;44.918;8.614;2024-03-02T08:32:38;4.90;;;3.08;;
77055;SDS011;67471;44.918;8.614;2024-03-02T08:35:42;8.48;;;3.58;;
77055;SDS011;67471;44.918;8.614;2024-03-02T08:38:45;6.65;;;3.53;;
77055;SDS011;67471;44.918;8.614;2024-03-02T08:41:51;8.15;;;3.60;;
77055;SDS011;67471;44.918;8.614;2024-03-02T08:44:54;6.85;;;3.70;;
77055;SDS011;67471;44.918;8.614;2024-03-02T08:47:59;7.22;;;3.78;;
77055;SDS011;67471;44.918;8.614;2024-03-02T08:51:03;4.65;;;3.92;;
77055;SDS011;67471;44.918;8.614;2024-03-02T08:54:09;6.30;;;3.78;;
77055;SDS011;67471;44.918;8.614;2024-03-02T08:57:13;5.95;;;3.90;;
77055;SDS011;67471;44.918;8.614;2024-03-02T09:00:17;6.68;;;4.07;;
77055;SDS011;67471;44.918;8.614;2024-03-02T09:03:22;9.10;;;5.22;;
77055;SDS011;67471;44.918;8.614;2024-03-02T09:06:25;9.07;;;4.80;;
77055;SDS011;67471;44.918;8.614;2024-03-02T09:09:29;8.45;;;5.00;;
77055;SDS011;67471;44.918;8.614;2024-03-02T09:12:35;8.43;;;4.57;;
77055;SDS011;67471;44.918;8.614;2024-03-02T09:15:39;7.28;;;4.97;;
77055;SDS011;67471;44.918;8.614;2024-03-02T09:18:43;8.10;;;4.53;;
77055;SDS011;67471;44.918;8.614;2024-03-02T09:21:47;10.63;;;5.55;;
77055;SDS011;67471;44.918;8.614;2024-03-02T09:24:51;7.80;;;5.85;;
77055;SDS011;67471;44.918;8.614;2024-03-02T09:27:55;8.52;;;5.63;;
77055;SDS011;67471;44.918;8.614;2024-03-02T09:31:00;10.50;;;6.05;;
77055;SDS011;67471;44.918;8.614;2024-03-02T09:34:04;8.60;;;5.40;;
77055;SDS011;67471;44.918;8.614;2024-03-02T09:37:08;8.57;;;5.80;;
77055;SDS011;67471;44.918;8.614;2024-03-02T09:40:12;8.20;;;6.07;;
77055;SDS011;67471;44.918;8.614;2024-03-02T09:43:17;10.60;;;7.40;;
77055;SDS011;67471;44.918;8.614;2024-03-02T09:46:20;9.40;;;6.93;;
77055;SDS011;67471;44.918;8.614;2024-03-02T09:49:24;9.48;;;6.53;;
77055;SDS011;67471;44.918;8.614;2024-03-02T09:52:28;8.43;;;6.68;;
77055;SDS011;67471;44.918;8.614;2024-03-02T09:55:32;9.50;;;6.68;;
77055;SDS011;67471;44.918;8.614;2024-03-02T09:58:35;10.05;;;7.47;;
77055;SDS011;67471;44.918;8.614;2024-03-02T10:01:39;10.63;;;7.75;;
77055;SDS011;67471;44.918;8.614;2024-03-02T10:04:43;11.75;;;8.50;;
77055;SDS011;67471;44.918;8.614;2024-03-02T10:07:58;10.13;;;6.53;;
77055;SDS011;67471;44.918;8.614;2024-03-02T10:11:05;19.52;;;13.90;;
77055;SDS011;67471;44.918;8.614;2024-03-02T10:14:10;19.58;;;15.00;;
77055;SDS011;67471;44.918;8.614;2024-03-02T10:17:17;9.68;;;7.38;;
77055;SDS011;67471;44.918;8.614;2024-03-02T10:20:21;10.88;;;7.60;;
77055;SDS011;67471;44.918;8.614;2024-03-02T10:23:26;10.52;;;7.53;;
77055;SDS011;67471;44.918;8.614;2024-03-02T10:26:30;9.48;;;6.45;;
77055;SDS011;67471;44.918;8.614;2024-03-02T10:29:36;10.88;;;6.78;;
77055;SDS011;67471;44.918;8.614;2024-03-02T10:32:41;11.02;;;6.68;;
77055;SDS011;67471;44.918;8.614;2024-03-02T10:35:45;10.30;;;7.72;;
77055;SDS011;67471;44.918;8.614;2024-03-02T10:38:49;11.60;;;7.63;;
77055;SDS011;67471;44.918;8.614;2024-03-02T10:41:53;11.20;;;8.07;;
77055;SDS011;67471;44.918;8.614;2024-03-02T10:44:59;10.57;;;7.25;;
77055;SDS011;67471;44.918;8.614;2024-03-02T10:48:02;11.07;;;6.50;;
77055;SDS011;67471;44.918;8.614;2024-03-02T10:51:08;9.35;;;7.32;;
77055;SDS011;67471;44.918;8.614;2024-03-02T10:54:12;9.35;;;6.38;;
77055;SDS011;67471;44.918;8.614;2024-03-02T10:57:16;9.93;;;6.97;;
77055;SDS011;67471;44.918;8.614;2024-03-02T11:00:25;10.65;;;6.75;;
77055;SDS011;67471;44.918;8.614;2024-03-02T11:03:35;10.82;;;6.78;;
77055;SDS011;67471;44.918;8.614;2024-03-02T11:06:48;11.90;;;7.55;;
77055;SDS011;67471;44.918;8.614;2024-03-02T11:10:01;10.70;;;7.15;;
77055;SDS011;67471;44.918;8.614;2024-03-02T11:13:12;7.95;;;5.70;;
77055;SDS011;67471;44.918;8.614;2024-03-02T11:16:37;9.70;;;6.40;;
77055;SDS011;67471;44.918;8.614;2024-03-02T11:19:41;8.40;;;5.95;;
77055;SDS011;67471;44.918;8.614;2024-03-02T11:22:46;9.65;;;6.43;;
77055;SDS011;67471;44.918;8.614;2024-03-02T11:25:50;8.40;;;5.70;;
77055;SDS011;67471;44.918;8.614;2024-03-02T11:28:53;10.10;;;6.30;;
77055;SDS011;67471;44.918;8.614;2024-03-02T11:31:59;8.40;;;6.13;;
77055;SDS011;67471;44.918;8.614;2024-03-02T11:35:06;10.10;;;6.72;;
77055;SDS011;67471;44.918;8.614;2024-03-02T11:38:11;10.35;;;6.60;;
77055;SDS011;67471;44.918;8.614;2024-03-02T11:41:15;11.68;;;7.43;;
77055;SDS011;67471;44.918;8.614;2024-03-02T11:44:18;10.35;;;6.20;;
77055;SDS011;67471;44.918;8.614;2024-03-02T11:47:22;11.75;;;7.47;;
77055;SDS011;67471;44.918;8.614;2024-03-02T11:50:30;10.55;;;7.15;;
77055;SDS011;67471;44.918;8.614;2024-03-02T11:53:36;11.05;;;7.03;;
77055;SDS011;67471;44.918;8.614;2024-03-02T11:56:43;9.80;;;6.55;;
77055;SDS011;67471;44.918;8.614;2024-03-02T11:59:47;10.82;;;7.22;;
77055;SDS011;67471;44.918;8.614;2024-03-02T12:03:26;10.75;;;7.22;;
77055;SDS011;67471;44.918;8.614;2024-03-02T12:06:24;11.30;;;7.57;;
77055;SDS011;67471;44.918;8.614;2024-03-02T12:09:28;13.55;;;8.82;;
77055;SDS011;67471;44.918;8.614;2024-03-02T12:12:32;12.13;;;7.47;;
77055;SDS011;67471;44.918;8.614;2024-03-02T12:15:37;10.95;;;7.85;;
77055;SDS011;67471;44.918;8.614;2024-03-02T12:18:42;12.60;;;8.25;;
77055;SDS011;67471;44.918;8.614;2024-03-02T12:21:46;12.18;;;7.85;;
77055;SDS011;67471;44.918;8.614;2024-03-02T12:24:50;13.02;;;8.38;;
77055;SDS011;67471;44.918;8.614;2024-03-02T12:27:54;11.32;;;7.80;;
77055;SDS011;67471;44.918;8.614;2024-03-02T12:31:00;9.63;;;7.00;;
77055;SDS011;67471;44.918;8.614;2024-03-02T12:34:03;14.68;;;8.82;;
77055;SDS011;67471;44.918;8.614;2024-03-02T12:37:07;9.48;;;6.95;;
77055;SDS011;67471;44.918;8.614;2024-03-02T12:40:12;11.05;;;7.40;;
77055;SDS011;67471;44.918;8.614;2024-03-02T12:43:16;10.85;;;8.38;;
77055;SDS011;67471;44.918;8.614;2024-03-02T12:46:20;9.38;;;6.28;;
77055;SDS011;67471;44.918;8.614;2024-03-02T12:49:24;8.48;;;6.18;;
77055;SDS011;67471;44.918;8.614;2024-03-02T12:52:28;10.57;;;6.05;;
77055;SDS011;67471;44.918;8.614;2024-03-02T12:55:31;10.00;;;6.25;;
77055;SDS011;67471;44.918;8.614;2024-03-02T12:58:41;10.20;;;6.07;;
77055;SDS011;67471;44.918;8.614;2024-03-02T13:01:52;9.90;;;6.55;;
77055;SDS011;67471;44.918;8.614;2024-03-02T13:04:57;9.68;;;6.63;;
77055;SDS011;67471;44.918;8.614;2024-03-02T13:08:02;10.48;;;5.50;;
77055;SDS011;67471;44.918;8.614;2024-03-02T13:11:07;8.30;;;5.40;;
77055;SDS011;67471;44.918;8.614;2024-03-02T13:14:11;8.13;;;5.22;;
77055;SDS011;67471;44.918;8.614;2024-03-02T13:17:15;8.30;;;5.57;;
77055;SDS011;67471;44.918;8.614;2024-03-02T13:20:19;9.13;;;6.57;;
77055;SDS011;67471;44.918;8.614;2024-03-02T13:23:23;8.85;;;5.95;;
77055;SDS011;67471;44.918;8.614;2024-03-02T13:26:27;10.30;;;6.97;;
77055;SDS011;67471;44.918;8.614;2024-03-02T13:29:30;8.93;;;6.57;;
77055;SDS011;67471;44.918;8.614;2024-03-02T13:32:34;10.27;;;7.10;;
77055;SDS011;67471;44.918;8.614;2024-03-02T13:35:38;9.77;;;7.05;;
77055;SDS011;67471;44.918;8.614;2024-03-02T13:38:42;11.38;;;7.20;;
77055;SDS011;67471;44.918;8.614;2024-03-02T13:41:46;10.15;;;6.40;;
77055;SDS011;67471;44.918;8.614;2024-03-02T13:44:56;10.43;;;6.35;;
77055;SDS011;67471;44.918;8.614;2024-03-02T13:48:00;8.00;;;5.30;;
77055;SDS011;67471;44.918;8.614;2024-03-02T13:51:03;8.55;;;5.88;;
77055;SDS011;67471;44.918;8.614;2024-03-02T13:54:07;11.15;;;8.38;;
77055;SDS011;67471;44.918;8.614;2024-03-02T13:57:11;9.68;;;6.85;;
77055;SDS011;67471;44.918;8.614;2024-03-02T14:00:16;10.73;;;7.03;;
77055;SDS011;67471;44.918;8.614;2024-03-02T14:03:20;10.15;;;7.13;;
77055;SDS011;67471;44.918;8.614;2024-03-02T14:06:24;12.50;;;8.55;;
77055;SDS011;67471;44.918;8.614;2024-03-02T14:09:30;11.35;;;7.53;;
77055;SDS011;67471;44.918;8.614;2024-03-02T14:12:34;9.98;;;7.05;;
77055;SDS011;67471;44.918;8.614;2024-03-02T14:15:38;11.52;;;7.20;;
77055;SDS011;67471;44.918;8.614;2024-03-02T14:18:42;9.18;;;6.63;;
77055;SDS011;67471;44.918;8.614;2024-03-02T14:21:46;8.52;;;5.72;;
77055;SDS011;67471;44.918;8.614;2024-03-02T14:24:50;8.52;;;6.03;;
77055;SDS011;67471;44.918;8.614;2024-03-02T14:27:54;8.57;;;6.10;;
77055;SDS011;67471;44.918;8.614;2024-03-02T14:30:58;7.05;;;4.97;;
77055;SDS011;67471;44.918;8.614;2024-03-02T14:34:03;7.57;;;4.53;;
77055;SDS011;67471;44.918;8.614;2024-03-02T14:37:07;6.57;;;4.80;;
77055;SDS011;67471;44.918;8.614;2024-03-02T14:40:11;9.05;;;5.28;;
77055;SDS011;67471;44.918;8.614;2024-03-02T14:43:16;8.15;;;5.57;;
77055;SDS011;67471;44.918;8.614;2024-03-02T14:46:20;10.02;;;6.13;;
77055;SDS011;67471;44.918;8.614;2024-03-02T14:49:24;9.23;;;6.32;;
77055;SDS011;67471;44.918;8.614;2024-03-02T14:52:28;7.57;;;4.97;;
77055;SDS011;67471;44.918;8.614;2024-03-02T14:55:32;6.13;;;4.40;;
77055;SDS011;67471;44.918;8.614;2024-03-02T14:58:37;8.18;;;4.75;;
77055;SDS011;67471;44.918;8.614;2024-03-02T15:01:41;8.52;;;4.70;;
77055;SDS011;67471;44.918;8.614;2024-03-02T15:04:45;6.50;;;4.68;;
77055;SDS011;67471;44.918;8.614;2024-03-02T15:07:51;8.10;;;5.60;;
77055;SDS011;67471;44.918;8.614;2024-03-02T15:10:55;9.88;;;5.57;;
77055;SDS011;67471;44.918;8.614;2024-03-02T15:14:03;9.45;;;5.25;;
77055;SDS011;67471;44.918;8.614;2024-03-02T15:17:07;10.60;;;5.85;;
77055;SDS011;67471;44.918;8.614;2024-03-02T15:20:10;8.32;;;5.80;;
77055;SDS011;67471;44.918;8.614;2024-03-02T15:23:14;8.48;;;5.00;;
77055;SDS011;67471;44.918;8.614;2024-03-02T15:26:18;7.45;;;5.53;;
77055;SDS011;67471;44.918;8.614;2024-03-02T15:29:22;6.78;;;4.55;;
77055;SDS011;67471;44.918;8.614;2024-03-02T15:32:28;9.55;;;5.40;;
77055;SDS011;67471;44.918;8.614;2024-03-02T15:35:32;6.82;;;5.05;;
77055;SDS011;67471;44.918;8.614;2024-03-02T15:38:36;9.45;;;5.20;;
77055;SDS011;67471;44.918;8.614;2024-03-02T15:41:41;9.80;;;5.43;;
77055;SDS011;67471;44.918;8.614;2024-03-02T15:44:47;8.10;;;5.82;;
77055;SDS011;67471;44.918;8.614;2024-03-02T15:47:51;7.55;;;5.30;;
77055;SDS011;67471;44.918;8.614;2024-03-02T15:50:55;9.85;;;5.65;;
77055;SDS011;67471;44.918;8.614;2024-03-02T15:53:58;10.43;;;5.90;;
77055;SDS011;67471;44.918;8.614;2024-03-02T15:57:02;10.40;;;6.45;;
77055;SDS011;67471;44.918;8.614;2024-03-02T16:00:06;10.63;;;6.30;;
77055;SDS011;67471;44.918;8.614;2024-03-02T16:03:17;7.10;;;4.90;;
77055;SDS011;67471;44.918;8.614;2024-03-02T16:06:21;7.80;;;5.00;;
77055;SDS011;67471;44.918;8.614;2024-03-02T16:09:25;8.18;;;5.55;;
77055;SDS011;67471;44.918;8.614;2024-03-02T16:12:29;7.38;;;5.40;;
77055;SDS011;67471;44.918;8.614;2024-03-02T16:15:33;7.25;;;5.13;;
77055;SDS011;67471;44.918;8.614;2024-03-02T16:18:37;7.90;;;4.88;;
77055;SDS011;67471;44.918;8.614;2024-03-02T16:21:41;6.53;;;3.83;;
77055;SDS011;67471;44.918;8.614;2024-03-02T16:24:45;5.82;;;3.80;;
77055;SDS011;67471;44.918;8.614;2024-03-02T16:27:49;4.32;;;3.38;;
77055;SDS011;67471;44.918;8.614;2024-03-02T16:30:53;4.35;;;2.60;;
77055;SDS011;67471;44.918;8.614;2024-03-02T16:33:57;6.00;;;2.17;;
77055;SDS011;67471;44.918;8.614;2024-03-02T16:37:01;6.18;;;2.67;;
77055;SDS011;67471;44.918;8.614;2024-03-02T16:40:06;5.63;;;1.92;;
77055;SDS011;67471;44.918;8.614;2024-03-02T16:43:11;5.05;;;1.50;;
77055;SDS011;67471;44.918;8.614;2024-03-02T16:46:15;8.63;;;2.22;;
77055;SDS011;67471;44.918;8.614;2024-03-02T16:49:19;4.18;;;1.70;;
77055;SDS011;67471;44.918;8.614;2024-03-02T16:52:26;8.20;;;2.35;;
77055;SDS011;67471;44.918;8.614;2024-03-02T16:55:33;7.70;;;2.08;;
77055;SDS011;67471;44.918;8.614;2024-03-02T16:58:36;7.22;;;2.58;;
77055;SDS011;67471;44.918;8.614;2024-03-02T17:01:40;8.45;;;2.33;;
77055;SDS011;67471;44.918;8.614;2024-03-02T17:04:44;10.35;;;2.92;;
77055;SDS011;67471;44.918;8.614;2024-03-02T17:07:48;6.25;;;2.58;;
77055;SDS011;67471;44.918;8.614;2024-03-02T17:10:51;9.25;;;2.38;;
77055;SDS011;67471;44.918;8.614;2024-03-02T17:13:55;7.18;;;2.45;;
77055;SDS011;67471;44.918;8.614;2024-03-02T17:17:01;8.43;;;2.25;;
77055;SDS011;67471;44.918;8.614;2024-03-02T17:20:05;7.28;;;1.88;;
77055;SDS011;67471;44.918;8.614;2024-03-02T17:23:12;6.65;;;2.20;;
77055;SDS011;67471;44.918;8.614;2024-03-02T17:26:16;8.73;;;2.35;;
77055;SDS011;67471;44.918;8.614;2024-03-02T17:29:20;5.60;;;2.35;;
77055;SDS011;67471;44.918;8.614;2024-03-02T17:32:23;7.60;;;2.33;;
77055;SDS011;67471;44.918;8.614;2024-03-02T17:35:27;5.18;;;2.00;;
77055;SDS011;67471;44.918;8.614;2024-03-02T17:38:31;3.83;;;2.00;;
77055;SDS011;67471;44.918;8.614;2024-03-02T17:41:35;9.65;;;2.63;;
77055;SDS011;67471;44.918;8.614;2024-03-02T17:44:39;10.82;;;2.63;;
77055;SDS011;67471;44.918;8.614;2024-03-02T17:47:43;8.15;;;2.65;;
77055;SDS011;67471;44.918;8.614;2024-03-02T17:50:48;15.05;;;6.65;;
77055;SDS011;67471;44.918;8.614;2024-03-02T17:53:52;16.67;;;7.82;;
77055;SDS011;67471;44.918;8.614;2024-03-02T17:56:56;10.93;;;4.03;;
77055;SDS011;67471;44.918;8.614;2024-03-02T17:59:59;11.05;;;2.95;;
77055;SDS011;67471;44.918;8.614;2024-03-02T18:03:04;7.80;;;2.13;;
77055;SDS011;67471;44.918;8.614;2024-03-02T18:06:12;6.85;;;2.17;;
77055;SDS011;67471;44.918;8.614;2024-03-02T18:09:16;7.38;;;2.00;;
77055;SDS011;67471;44.918;8.614;2024-03-02T18:12:20;5.75;;;2.08;;
77055;SDS011;67471;44.918;8.614;2024-03-02T18:15:24;6.13;;;1.58;;
77055;SDS011;67471;44.918;8.614;2024-03-02T18:18:27;8.00;;;1.92;;
77055;SDS011;67471;44.918;8.614;2024-03-02T18:21:31;3.75;;;1.40;;
77055;SDS011;67471;44.918;8.614;2024-03-02T18:24:35;6.93;;;1.60;;
77055;SDS011;67471;44.918;8.614;2024-03-02T18:27:39;3.75;;;1.45;;
77055;SDS011;67471;44.918;8.614;2024-03-02T18:30:43;7.50;;;1.75;;